KFMN/FMN METAR and TAF weather

Enter ICAO airport designator
Station Type Date Time Source
KFMN METAR 2021/09/23 17:53 UTC NOAA

KFMN 231753Z 14006KT 10SM CLR 23/M05 A3017 RMK AO2 SLP170 T02331050 10233 20067 58011


Station Type Date Time Source
KFMN Decoded METAR 2021/09/23 17:53 UTC NOAA

FARMINGTON FOUR CORNERS, NM, United States (KFMN) 36-45N 108-14W 1685M
Sep 23, 2021 - 01:53 PM EDT / 2021.09.23 1753 UTC
Wind: from the SE (140 degrees) at 7 MPH (6 KT):0
Visibility: 10 mile(s):0
Sky conditions: clear
Temperature: 73.9 F (23.3 C)
Dew Point: 23.0 F (-5.0 C)
Relative Humidity: 14%
Pressure (altimeter): 30.17 in. Hg (1021 hPa)
Pressure tendency: 0.03 inches (1.1 hPa) lower than three hours ago
ob: KFMN 231753Z 14006KT 10SM CLR 23/M05 A3017 RMK AO2 SLP170 T02331050 10233 20067 58011
cycle: 18

Station Type Date Time Source
KFMN TAF 2021/09/23 18:33 UTC NOAA

TAF KFMN 231730Z 2318/2418 13007KT P6SM FEW250
FM232000 26009KT P6SM FEW100 SCT250
FM240300 VRB06KT P6SM SCT100 BKN200
FM241200 09007KT P6SM SCT200

Example: see airport list